createdAt,value
2018-12-20T00:00:13.005Z,3.89
2018-12-20T00:01:13.125Z,3.76
2018-12-20T00:02:13.246Z,3.72
2018-12-20T00:03:13.157Z,3.76
2018-12-20T00:04:13.244Z,3.76
2018-12-20T00:05:13.215Z,3.79
2018-12-20T00:06:13.259Z,3.80
2018-12-20T00:07:13.292Z,3.78
2018-12-20T00:08:13.490Z,3.79
2018-12-20T00:09:13.533Z,3.78
2018-12-20T00:10:13.571Z,3.78
2018-12-20T00:11:13.536Z,3.80
2018-12-20T00:12:13.501Z,3.72
2018-12-20T00:13:13.745Z,3.75
2018-12-20T00:14:13.622Z,3.79
2018-12-20T00:15:13.833Z,3.78
2018-12-20T00:16:13.675Z,3.76
2018-12-20T00:17:13.720Z,3.79
2018-12-20T00:18:13.855Z,3.79
2018-12-20T00:19:13.787Z,3.86
2018-12-20T00:20:13.892Z,3.80
2018-12-20T00:21:14.013Z,3.88
2018-12-20T00:22:13.950Z,3.89
2018-12-20T00:23:13.967Z,3.90
2018-12-20T00:24:14.161Z,3.78
2018-12-20T00:25:14.083Z,3.79
2018-12-20T00:26:14.168Z,3.85
2018-12-20T00:27:14.115Z,3.90
2018-12-20T00:28:14.238Z,3.92
2018-12-20T00:29:14.247Z,3.92
2018-12-20T00:30:14.357Z,3.86
2018-12-20T00:31:14.300Z,3.98
2018-12-20T00:32:14.449Z,3.94
2018-12-20T00:33:14.406Z,3.94
2018-12-20T00:34:14.477Z,3.88
2018-12-20T00:35:14.658Z,3.97
2018-12-20T00:36:14.560Z,3.90
2018-12-20T00:37:14.579Z,3.97
2018-12-20T00:38:14.602Z,3.92
2018-12-20T00:39:14.711Z,3.98
2018-12-20T00:40:14.739Z,4.00
2018-12-20T00:41:14.712Z,3.97
2018-12-20T00:42:14.731Z,3.97
2018-12-20T00:43:14.778Z,3.96
2018-12-20T00:44:14.896Z,4.01
2018-12-20T00:45:14.973Z,3.97
2018-12-20T00:46:15.147Z,3.98
2018-12-20T00:47:14.983Z,3.97
2018-12-20T00:48:15.007Z,4.01
2018-12-20T00:49:15.099Z,3.98
2018-12-20T00:50:15.084Z,4.06
2018-12-20T00:51:15.200Z,4.00
2018-12-20T00:52:15.172Z,4.00
2018-12-20T00:53:15.183Z,3.92
2018-12-20T00:54:15.249Z,4.00
2018-12-20T00:55:15.288Z,4.00
2018-12-20T00:56:15.487Z,4.10
2018-12-20T00:57:15.407Z,3.94
2018-12-20T00:58:15.477Z,3.98
2018-12-20T00:59:15.473Z,4.01
2018-12-20T01:00:15.644Z,3.98
2018-12-20T01:01:15.536Z,3.98
2018-12-20T01:02:15.631Z,3.88
2018-12-20T01:03:15.764Z,3.90
2018-12-20T01:04:15.734Z,3.94
2018-12-20T01:05:15.722Z,3.89
2018-12-20T01:06:15.748Z,3.90
2018-12-20T01:07:15.762Z,3.97
2018-12-20T01:08:15.936Z,3.96
2018-12-20T01:09:15.896Z,3.94
2018-12-20T01:10:16.022Z,4.04
2018-12-20T01:11:15.951Z,3.98
2018-12-20T01:12:16.001Z,3.97
2018-12-20T01:13:16.009Z,4.01
2018-12-20T01:14:16.251Z,4.06
2018-12-20T01:15:16.923Z,4.10
2018-12-20T01:16:16.154Z,4.01
2018-12-20T01:17:16.219Z,4.00
2018-12-20T01:18:16.229Z,4.10
2018-12-20T01:19:16.413Z,4.07
2018-12-20T01:20:16.315Z,4.18
2018-12-20T01:21:16.403Z,4.00
2018-12-20T01:22:16.517Z,4.07
2018-12-20T01:23:16.421Z,4.01
2018-12-20T01:24:16.519Z,3.96
2018-12-20T01:25:16.532Z,3.90
2018-12-20T01:26:16.557Z,3.94
2018-12-20T01:27:16.671Z,3.97
2018-12-20T01:28:16.820Z,4.00
2018-12-20T01:29:16.724Z,4.07
2018-12-20T01:30:16.749Z,3.96
2018-12-20T01:31:16.760Z,4.00
2018-12-20T01:32:17.032Z,4.03
2018-12-20T01:33:16.858Z,3.98
2018-12-20T01:34:17.106Z,4.04
2018-12-20T01:35:17.019Z,3.98
2018-12-20T01:36:16.969Z,4.07
2018-12-20T01:37:17.049Z,4.06
2018-12-20T01:38:17.096Z,4.06
2018-12-20T01:39:17.315Z,4.01
2018-12-20T01:40:17.272Z,4.04
2018-12-20T01:41:17.214Z,4.04
2018-12-20T01:42:17.208Z,4.06
2018-12-20T01:43:17.277Z,4.14
2018-12-20T01:44:17.324Z,4.07
2018-12-20T01:45:17.358Z,4.07
2018-12-20T01:46:17.495Z,4.12
2018-12-20T01:47:17.434Z,4.03
2018-12-20T01:48:17.537Z,4.08
2018-12-20T01:49:17.671Z,4.14
2018-12-20T01:50:17.537Z,4.22
2018-12-20T01:51:17.733Z,4.15
2018-12-20T01:52:17.655Z,4.21
2018-12-20T01:53:17.798Z,4.19
2018-12-20T01:54:17.724Z,4.25
2018-12-20T01:55:17.759Z,4.18
2018-12-20T01:56:17.841Z,4.18
2018-12-20T01:57:17.933Z,4.22
2018-12-20T01:58:17.865Z,4.25
2018-12-20T01:59:17.934Z,4.26
2018-12-20T02:00:18.236Z,4.25
2018-12-20T02:01:18.024Z,4.22
2018-12-20T02:02:18.225Z,4.28
2018-12-20T02:03:18.192Z,4.28
2018-12-20T02:04:18.115Z,4.29
2018-12-20T02:05:18.192Z,4.33
2018-12-20T02:06:18.223Z,4.28
2018-12-20T02:07:18.321Z,4.18
2018-12-20T02:08:18.340Z,4.24
2018-12-20T02:09:18.341Z,4.24
2018-12-20T02:10:18.360Z,4.29
2018-12-20T02:11:18.481Z,4.25
2018-12-20T02:12:18.442Z,4.28
2018-12-20T02:13:18.504Z,4.34
2018-12-20T02:14:18.528Z,4.32
2018-12-20T02:15:18.735Z,4.28
2018-12-20T02:16:18.774Z,4.22
2018-12-20T02:17:18.905Z,4.29
2018-12-20T02:18:18.829Z,4.29
2018-12-20T02:19:18.738Z,4.29
2018-12-20T02:20:18.894Z,4.28
2018-12-20T02:21:18.922Z,4.36
2018-12-20T02:22:18.958Z,4.36
2018-12-20T02:23:18.907Z,4.34
2018-12-20T02:24:19.181Z,4.37
2018-12-20T02:25:19.197Z,4.39
2018-12-20T02:26:19.039Z,4.36
2018-12-20T02:27:19.171Z,4.43
2018-12-20T02:28:19.153Z,4.43
2018-12-20T02:29:19.151Z,4.42
2018-12-20T02:30:19.228Z,4.40
2018-12-20T02:31:19.251Z,4.43
2018-12-20T02:32:19.272Z,4.34
2018-12-20T02:33:19.447Z,4.34
2018-12-20T02:34:19.457Z,4.40
2018-12-20T02:35:19.546Z,4.33
2018-12-20T02:36:19.455Z,4.36
2018-12-20T02:37:19.562Z,4.43
2018-12-20T02:38:19.541Z,4.33
2018-12-20T02:39:19.567Z,4.25
2018-12-20T02:40:19.624Z,4.26
2018-12-20T02:41:19.695Z,4.26
2018-12-20T02:42:19.701Z,4.16
2018-12-20T02:43:19.885Z,4.24
2018-12-20T02:44:19.832Z,4.18
2018-12-20T02:45:19.925Z,4.22
2018-12-20T02:46:19.971Z,4.24
2018-12-20T02:47:19.908Z,4.16
2018-12-20T02:48:20.004Z,4.28
2018-12-20T02:49:19.979Z,4.25
2018-12-20T02:50:20.278Z,4.25
2018-12-20T02:51:20.086Z,4.19
2018-12-20T02:52:20.104Z,4.32
2018-12-20T02:53:20.307Z,4.29
2018-12-20T02:54:20.222Z,4.33
2018-12-20T02:55:20.367Z,4.32
2018-12-20T02:56:20.375Z,4.29
2018-12-20T02:57:20.314Z,4.39
2018-12-20T02:58:20.477Z,4.33
2018-12-20T02:59:20.427Z,4.29
2018-12-20T03:00:20.516Z,4.33
2018-12-20T03:01:20.497Z,4.36
2018-12-20T03:02:20.725Z,4.32
2018-12-20T03:03:20.563Z,4.24
2018-12-20T03:04:20.751Z,4.29
2018-12-20T03:05:20.811Z,4.33
2018-12-20T03:06:20.730Z,4.34
2018-12-20T03:07:20.910Z,4.37
2018-12-20T03:08:20.890Z,4.25
2018-12-20T03:09:21.066Z,4.25
2018-12-20T03:10:20.926Z,4.32
2018-12-20T03:11:20.892Z,4.29
2018-12-20T03:12:21.037Z,4.26
2018-12-20T03:13:21.192Z,4.36
2018-12-20T03:14:21.328Z,4.26
2018-12-20T03:15:21.134Z,4.28
2018-12-20T03:16:21.102Z,4.32
2018-12-20T03:17:21.333Z,4.34
2018-12-20T03:18:21.207Z,4.29
2018-12-20T03:19:21.230Z,4.34
2018-12-20T03:20:21.271Z,4.28
2018-12-20T03:21:21.523Z,4.25
2018-12-20T03:22:21.370Z,4.25
2018-12-20T03:23:21.407Z,4.15
2018-12-20T03:24:21.437Z,4.24
2018-12-20T03:25:21.604Z,4.29
2018-12-20T03:26:21.526Z,4.34
2018-12-20T03:27:21.726Z,4.34
2018-12-20T03:28:21.602Z,4.22
2018-12-20T03:29:21.665Z,4.34
2018-12-20T03:30:21.932Z,4.26
2018-12-20T03:31:21.726Z,4.34
2018-12-20T03:32:21.811Z,4.36
2018-12-20T03:33:21.953Z,4.34
2018-12-20T03:34:22.073Z,4.37
2018-12-20T03:35:22.034Z,4.40
2018-12-20T03:36:22.039Z,4.40
2018-12-20T03:37:21.999Z,4.39
2018-12-20T03:38:22.204Z,4.40
2018-12-20T03:39:22.161Z,4.37
2018-12-20T03:40:22.097Z,4.36
2018-12-20T03:41:22.143Z,4.36
2018-12-20T03:42:22.194Z,4.43
2018-12-20T03:43:22.412Z,4.43
2018-12-20T03:44:22.294Z,4.37
2018-12-20T03:45:28.683Z,4.37
2018-12-20T03:46:22.577Z,4.36
2018-12-20T03:47:22.581Z,4.26
2018-12-20T03:48:22.631Z,4.34
2018-12-20T03:49:22.669Z,4.22
2018-12-20T03:50:22.627Z,4.32
2018-12-20T03:51:22.741Z,4.32
2018-12-20T03:52:22.756Z,4.24
2018-12-20T03:53:22.798Z,4.29
2018-12-20T03:54:22.678Z,4.36
2018-12-20T03:55:22.714Z,4.25
2018-12-20T03:56:23.003Z,4.29
2018-12-20T03:57:22.800Z,4.26
2018-12-20T03:58:23.160Z,4.28
2018-12-20T03:59:22.897Z,4.29
2018-12-20T04:00:22.927Z,4.25
2018-12-20T04:01:22.963Z,4.29
2018-12-20T04:02:23.156Z,4.33
2018-12-20T04:03:23.092Z,4.22
2018-12-20T04:04:23.272Z,4.28
2018-12-20T04:05:23.228Z,4.22
2018-12-20T04:06:23.346Z,4.19
2018-12-20T04:07:23.210Z,4.15
2018-12-20T04:08:23.413Z,4.21
2018-12-20T04:09:23.471Z,4.19
2018-12-20T04:10:23.400Z,4.18
2018-12-20T04:11:23.513Z,4.19
2018-12-20T04:12:23.422Z,4.22
2018-12-20T04:13:23.565Z,4.21
2018-12-20T04:14:23.578Z,4.18
2018-12-20T04:15:23.634Z,4.16
2018-12-20T04:16:23.876Z,4.15
2018-12-20T04:17:23.636Z,4.21
2018-12-20T04:18:23.906Z,4.32
2018-12-20T04:19:23.724Z,4.19
2018-12-20T04:20:23.939Z,4.18
2018-12-20T04:21:23.784Z,4.24
2018-12-20T04:22:23.830Z,4.26
2018-12-20T04:23:23.867Z,4.24
2018-12-20T04:24:23.961Z,4.19
2018-12-20T04:25:23.954Z,4.26
2018-12-20T04:26:24.170Z,4.24
2018-12-20T04:27:24.135Z,4.21
2018-12-20T04:28:24.214Z,4.18
2018-12-20T04:29:24.167Z,4.24
2018-12-20T04:30:24.251Z,4.21
2018-12-20T04:31:24.196Z,4.21
2018-12-20T04:32:24.237Z,4.18
2018-12-20T04:33:24.402Z,4.28
2018-12-20T04:34:24.534Z,4.18
2018-12-20T04:35:24.377Z,4.21
2018-12-20T04:36:24.569Z,4.36
2018-12-20T04:37:24.440Z,4.28
2018-12-20T04:38:24.483Z,4.32
2018-12-20T04:39:24.830Z,4.28
2018-12-20T04:40:24.658Z,4.36
2018-12-20T04:41:24.820Z,4.29
2018-12-20T04:42:24.853Z,4.34
2018-12-20T04:43:24.935Z,4.37
2018-12-20T04:44:24.824Z,4.34
2018-12-20T04:45:24.808Z,4.43
2018-12-20T04:46:25.021Z,4.32
2018-12-20T04:47:25.007Z,4.34
2018-12-20T04:48:24.905Z,4.28
2018-12-20T04:49:24.956Z,4.33
2018-12-20T04:50:24.996Z,4.32
2018-12-20T04:51:25.071Z,4.34
2018-12-20T04:52:25.180Z,4.50
2018-12-20T04:53:25.358Z,4.43
2018-12-20T04:54:25.270Z,4.50
2018-12-20T04:55:25.254Z,4.47
2018-12-20T04:56:25.233Z,4.54
2018-12-20T04:57:25.294Z,4.57
2018-12-20T04:58:25.338Z,4.62
2018-12-20T04:59:25.384Z,4.50
2018-12-20T05:00:25.408Z,4.47
2018-12-20T05:01:25.577Z,4.61
2018-12-20T05:02:25.779Z,4.59
2018-12-20T05:03:25.577Z,4.67
2018-12-20T05:04:25.556Z,4.62
2018-12-20T05:05:25.621Z,4.67
2018-12-20T05:06:25.635Z,4.73
2018-12-20T05:07:25.896Z,4.65
2018-12-20T05:08:25.793Z,4.64
2018-12-20T05:09:25.766Z,4.59
2018-12-20T05:10:26.091Z,4.58
2018-12-20T05:11:25.933Z,4.50
2018-12-20T05:12:25.916Z,4.51
2018-12-20T05:13:25.970Z,4.57
2018-12-20T05:14:26.430Z,4.58
2018-12-20T05:15:26.340Z,4.62
2018-12-20T05:16:26.055Z,4.59
2018-12-20T05:17:26.104Z,4.64
2018-12-20T05:18:26.153Z,4.55
2018-12-20T05:19:26.251Z,4.64
2018-12-20T05:20:26.243Z,4.58
2018-12-20T05:21:26.593Z,4.54
2018-12-20T05:22:26.316Z,4.59
2018-12-20T05:23:26.341Z,4.59
2018-12-20T05:24:26.626Z,4.61
2018-12-20T05:25:26.623Z,4.61
2018-12-20T05:26:26.716Z,4.58
2018-12-20T05:27:26.506Z,4.46
2018-12-20T05:28:26.612Z,4.51
2018-12-20T05:29:26.734Z,4.50
2018-12-20T05:30:26.644Z,4.47
2018-12-20T05:31:26.674Z,4.51
2018-12-20T05:32:26.787Z,4.54
2018-12-20T05:33:26.804Z,4.40
2018-12-20T05:34:27.004Z,4.44
2018-12-20T05:35:26.967Z,4.46
2018-12-20T05:36:26.879Z,4.37
2018-12-20T05:37:27.064Z,4.40
2018-12-20T05:38:26.994Z,4.44
2018-12-20T05:39:27.057Z,4.50
2018-12-20T05:40:27.064Z,4.37
2018-12-20T05:41:27.133Z,4.46
2018-12-20T05:42:27.188Z,4.46
2018-12-20T05:43:27.297Z,4.57
2018-12-20T05:44:27.334Z,4.46
2018-12-20T05:45:27.405Z,4.51
2018-12-20T05:46:27.338Z,4.52
2018-12-20T05:47:27.464Z,4.52
2018-12-20T05:48:27.380Z,4.46
2018-12-20T05:49:27.568Z,4.40
2018-12-20T05:50:27.460Z,4.51
2018-12-20T05:51:27.577Z,4.51
2018-12-20T05:52:27.761Z,4.46
2018-12-20T05:53:27.591Z,4.40
2018-12-20T05:54:27.625Z,4.52
2018-12-20T05:55:27.774Z,4.52
2018-12-20T05:56:27.721Z,4.50
2018-12-20T05:57:28.509Z,4.51
2018-12-20T05:58:28.129Z,4.50
2018-12-20T05:59:28.026Z,4.54
2018-12-20T06:00:27.873Z,4.69
2018-12-20T06:01:28.070Z,4.65
2018-12-20T06:02:28.126Z,4.61
2018-12-20T06:03:28.001Z,4.67
2018-12-20T06:04:28.107Z,4.67
2018-12-20T06:05:28.226Z,4.75
2018-12-20T06:06:28.207Z,4.70
2018-12-20T06:07:28.234Z,4.75
2018-12-20T06:08:28.230Z,4.73
2018-12-20T06:09:28.282Z,4.75
2018-12-20T06:10:28.299Z,4.65
2018-12-20T06:11:28.551Z,4.70
2018-12-20T06:12:28.700Z,4.65
2018-12-20T06:13:28.657Z,4.76
2018-12-20T06:14:28.514Z,4.69
2018-12-20T06:15:28.499Z,4.73
2018-12-20T06:16:28.541Z,4.75
2018-12-20T06:17:28.612Z,4.76
2018-12-20T06:18:28.621Z,4.79
2018-12-20T06:19:28.697Z,4.73
2018-12-20T06:20:28.901Z,4.80
2018-12-20T06:21:28.759Z,4.67
2018-12-20T06:22:28.788Z,4.73
2018-12-20T06:23:28.850Z,4.79
2018-12-20T06:24:28.891Z,4.75
2018-12-20T06:25:28.913Z,4.80
2018-12-20T06:26:28.952Z,4.84
2018-12-20T06:27:28.997Z,4.77
2018-12-20T06:28:29.047Z,4.80
2018-12-20T06:29:29.097Z,4.70
2018-12-20T06:30:29.148Z,4.80
2018-12-20T06:31:29.163Z,4.69
2018-12-20T06:32:29.221Z,4.77
2018-12-20T06:33:29.251Z,4.65
2018-12-20T06:34:29.313Z,4.69
2018-12-20T06:35:29.345Z,4.72
2018-12-20T06:36:29.373Z,4.76
2018-12-20T06:37:29.409Z,4.73
2018-12-20T06:38:29.453Z,4.77
2018-12-20T06:39:29.544Z,4.79
2018-12-20T06:40:29.566Z,4.80
2018-12-20T06:41:29.576Z,4.84
2018-12-20T06:42:29.650Z,4.86
2018-12-20T06:43:29.670Z,4.86
2018-12-20T06:44:29.702Z,4.94
2018-12-20T06:45:30.256Z,4.91
2018-12-20T06:46:29.816Z,4.91
2018-12-20T06:47:29.824Z,4.91
2018-12-20T06:48:29.871Z,4.92
2018-12-20T06:49:29.910Z,4.88
2018-12-20T06:50:29.971Z,4.96
2018-12-20T06:51:30.917Z,4.89
2018-12-20T06:52:30.035Z,4.91
2018-12-20T06:53:30.077Z,4.89
2018-12-20T06:54:30.128Z,4.94
2018-12-20T06:55:30.178Z,4.94
2018-12-20T06:56:30.264Z,4.88
2018-12-20T06:57:30.242Z,4.95
2018-12-20T06:58:30.283Z,4.95
2018-12-20T06:59:30.331Z,4.94
2018-12-20T07:00:30.380Z,4.95
2018-12-20T07:01:30.449Z,4.94
2018-12-20T07:02:30.455Z,4.95
2018-12-20T07:03:30.491Z,4.96
2018-12-20T07:04:30.540Z,4.91
2018-12-20T07:05:30.585Z,4.95
2018-12-20T07:06:30.648Z,4.89
2018-12-20T07:07:30.663Z,4.92
2018-12-20T07:08:30.702Z,4.84
2018-12-20T07:09:30.745Z,4.88
2018-12-20T07:10:30.893Z,4.92
2018-12-20T07:11:30.826Z,4.92
2018-12-20T07:12:30.872Z,4.92
2018-12-20T07:13:30.932Z,4.86
2018-12-20T07:14:30.954Z,4.89
2018-12-20T07:15:30.993Z,4.88
2018-12-20T07:16:31.059Z,4.88
2018-12-20T07:17:31.092Z,4.86
2018-12-20T07:18:31.152Z,4.91
2018-12-20T07:19:31.165Z,4.84
2018-12-20T07:20:31.204Z,4.79
2018-12-20T07:21:31.251Z,4.84
2018-12-20T07:22:31.316Z,4.84
2018-12-20T07:23:31.343Z,4.76
2018-12-20T07:24:31.375Z,4.83
2018-12-20T07:25:31.413Z,4.83
2018-12-20T07:26:31.462Z,4.77
2018-12-20T07:27:31.521Z,4.83
2018-12-20T07:28:31.546Z,4.76
2018-12-20T07:29:31.583Z,4.77
2018-12-20T07:30:31.630Z,4.83
2018-12-20T07:31:31.671Z,4.79
2018-12-20T07:32:31.748Z,4.76
2018-12-20T07:33:31.747Z,4.83
2018-12-20T07:34:31.815Z,4.75
2018-12-20T07:35:31.832Z,4.79
2018-12-20T07:36:31.872Z,4.83
2018-12-20T07:37:31.939Z,4.83
2018-12-20T07:38:31.994Z,4.75
2018-12-20T07:39:32.004Z,4.86
2018-12-20T07:40:32.042Z,4.79
2018-12-20T07:41:32.182Z,4.80
2018-12-20T07:42:32.127Z,4.80
2018-12-20T07:43:32.189Z,4.83
2018-12-20T07:44:32.206Z,4.76
2018-12-20T07:45:32.256Z,4.76
2018-12-20T07:46:37.811Z,4.76
2018-12-20T07:47:32.336Z,4.76
2018-12-20T07:48:32.506Z,4.84
2018-12-20T07:49:32.418Z,4.75
2018-12-20T07:50:32.456Z,4.88
2018-12-20T07:51:32.500Z,4.89
2018-12-20T07:52:32.551Z,4.91
2018-12-20T07:53:32.612Z,4.91
2018-12-20T07:54:32.637Z,4.88
2018-12-20T07:55:32.679Z,4.94
2018-12-20T07:56:32.716Z,4.91
2018-12-20T07:57:32.765Z,4.94
2018-12-20T07:58:32.811Z,4.95
2018-12-20T07:59:32.853Z,4.92
2018-12-20T08:00:32.876Z,4.89
2018-12-20T08:01:32.920Z,4.92
2018-12-20T08:02:32.963Z,4.99
2018-12-20T08:03:33.010Z,4.98
2018-12-20T08:04:33.075Z,5.04
2018-12-20T08:05:33.084Z,5.10
2018-12-20T08:06:33.131Z,5.16
2018-12-20T08:07:33.177Z,5.19
2018-12-20T08:08:33.221Z,5.19
2018-12-20T08:09:33.273Z,5.20
2018-12-20T08:10:33.300Z,5.19
2018-12-20T08:11:33.345Z,5.28
2018-12-20T08:12:33.383Z,5.31
2018-12-20T08:13:33.422Z,5.31
2018-12-20T08:14:33.480Z,5.38
2018-12-20T08:15:33.506Z,5.45
2018-12-20T08:16:33.551Z,5.53
2018-12-20T08:17:33.595Z,5.57
2018-12-20T08:18:33.637Z,5.53
2018-12-20T08:19:36.452Z,5.56
2018-12-20T08:20:33.783Z,5.63
2018-12-20T08:21:33.762Z,5.60
2018-12-20T08:22:33.806Z,5.67
2018-12-20T08:23:33.847Z,5.66
2018-12-20T08:24:33.908Z,5.68
2018-12-20T08:25:33.932Z,5.82
2018-12-20T08:26:33.972Z,5.78
2018-12-20T08:27:34.020Z,5.77
2018-12-20T08:28:34.057Z,5.93
2018-12-20T08:29:34.131Z,5.83
2018-12-20T08:30:34.145Z,5.89
2018-12-20T08:31:34.196Z,6.03
2018-12-20T08:32:34.228Z,6.09
2018-12-20T08:33:34.268Z,6.14
2018-12-20T08:34:34.346Z,6.28
2018-12-20T08:35:34.377Z,6.30
2018-12-20T08:36:34.403Z,6.46
2018-12-20T08:37:34.444Z,6.58
2018-12-20T08:38:34.499Z,6.59
2018-12-20T08:39:34.533Z,6.71
2018-12-20T08:40:34.601Z,6.79
2018-12-20T08:41:34.644Z,6.79
2018-12-20T08:42:34.659Z,6.77
2018-12-20T08:43:34.703Z,6.89
2018-12-20T08:44:34.762Z,7.20
2018-12-20T08:45:34.848Z,7.37
2018-12-20T08:46:34.834Z,7.66
2018-12-20T08:47:34.876Z,7.79
2018-12-20T08:48:34.921Z,7.75
2018-12-20T08:49:34.962Z,7.71
2018-12-20T08:50:35.031Z,7.78
2018-12-20T08:51:35.068Z,7.67
2018-12-20T08:52:35.110Z,7.82
2018-12-20T08:53:35.156Z,8.03
2018-12-20T08:54:35.183Z,8.14
2018-12-20T08:55:35.246Z,8.42
2018-12-20T08:56:35.296Z,8.54
2018-12-20T08:57:35.316Z,8.60
2018-12-20T08:58:35.357Z,8.69
2018-12-20T08:59:35.419Z,8.57
2018-12-20T09:00:35.459Z,8.60
2018-12-20T09:01:35.521Z,8.45
2018-12-20T09:02:35.561Z,8.26
2018-12-20T09:03:35.585Z,7.92
2018-12-20T09:04:35.629Z,7.63
2018-12-20T09:05:35.680Z,7.50
2018-12-20T09:06:35.756Z,7.31
2018-12-20T09:07:35.766Z,7.20
2018-12-20T09:08:35.849Z,7.22
2018-12-20T09:09:35.851Z,7.26
2018-12-20T09:10:35.896Z,7.20
2018-12-20T09:11:35.965Z,7.22
2018-12-20T09:12:36.013Z,7.16
2018-12-20T09:13:36.047Z,7.08
2018-12-20T09:14:36.085Z,6.90
2018-12-20T09:15:36.129Z,6.90
2018-12-20T09:16:36.193Z,6.84
2018-12-20T09:17:36.236Z,6.90
2018-12-20T09:18:36.255Z,6.84
2018-12-20T09:19:36.294Z,6.86
2018-12-20T09:20:36.344Z,6.90
2018-12-20T09:21:36.383Z,6.84
2018-12-20T09:22:36.477Z,6.94
2018-12-20T09:23:36.475Z,6.90
2018-12-20T09:24:36.520Z,6.98
2018-12-20T09:25:36.559Z,6.83
2018-12-20T09:26:36.618Z,6.90
2018-12-20T09:27:36.674Z,6.90
2018-12-20T09:28:36.699Z,7.15
2018-12-20T09:29:36.742Z,7.15
2018-12-20T09:30:36.785Z,7.09
2018-12-20T09:31:36.831Z,7.29
2018-12-20T09:32:36.897Z,7.31
2018-12-20T09:33:36.937Z,7.32
2018-12-20T09:34:36.965Z,7.71
2018-12-20T09:35:37.014Z,7.75
2018-12-20T09:36:37.049Z,7.77
2018-12-20T09:37:37.096Z,7.67
2018-12-20T09:38:37.159Z,7.72
2018-12-20T09:39:37.200Z,7.55
2018-12-20T09:40:37.228Z,7.56
2018-12-20T09:41:37.276Z,7.49
2018-12-20T09:42:37.352Z,7.47
2018-12-20T09:43:37.382Z,7.53
2018-12-20T09:44:37.418Z,7.58
2018-12-20T09:45:37.460Z,7.62
2018-12-20T09:46:37.504Z,7.59
2018-12-20T09:47:37.548Z,7.63
2018-12-20T09:48:37.609Z,7.69
2018-12-20T09:49:37.631Z,7.62
2018-12-20T09:50:37.686Z,7.62
2018-12-20T09:51:37.723Z,7.47
2018-12-20T09:52:37.827Z,7.59
2018-12-20T09:53:37.821Z,7.63
2018-12-20T09:54:37.897Z,7.71
2018-12-20T09:55:37.905Z,7.75
2018-12-20T09:56:37.950Z,7.78
2018-12-20T09:57:37.996Z,7.85
2018-12-20T09:58:38.064Z,7.89
2018-12-20T09:59:38.093Z,7.87
2018-12-20T10:00:38.127Z,7.99
2018-12-20T10:01:38.180Z,7.92
2018-12-20T10:02:38.221Z,7.94
2018-12-20T10:03:38.286Z,7.94
2018-12-20T10:04:38.348Z,7.93
2018-12-20T10:05:38.359Z,7.96
2018-12-20T10:06:38.401Z,7.97
2018-12-20T10:07:38.440Z,8.08
2018-12-20T10:08:38.494Z,8.11
2018-12-20T10:09:38.952Z,8.26
2018-12-20T10:10:38.578Z,8.84
2018-12-20T10:11:38.625Z,9.30
2018-12-20T10:12:38.669Z,9.73
2018-12-20T10:13:38.731Z,9.91
2018-12-20T10:14:38.757Z,9.89
2018-12-20T10:15:38.804Z,9.57
2018-12-20T10:16:38.864Z,9.82
2018-12-20T10:17:38.921Z,10.15
2018-12-20T10:18:38.983Z,10.03
2018-12-20T10:19:39.014Z,10.01
2018-12-20T10:20:39.050Z,9.96
2018-12-20T10:21:39.093Z,9.97
2018-12-20T10:22:39.136Z,10.03
2018-12-20T10:23:39.180Z,10.33
2018-12-20T10:24:39.262Z,10.66
2018-12-20T10:25:39.289Z,10.36
2018-12-20T10:26:39.338Z,10.14
2018-12-20T10:27:40.232Z,9.96
2018-12-20T10:28:39.422Z,9.63
2018-12-20T10:29:39.507Z,9.58
2018-12-20T10:30:39.547Z,9.38
2018-12-20T10:31:39.576Z,9.20
2018-12-20T10:32:39.612Z,8.90
2018-12-20T10:33:39.655Z,8.96
2018-12-20T10:34:39.701Z,8.83
2018-12-20T10:35:39.778Z,8.73
2018-12-20T10:36:40.730Z,8.55
2018-12-20T10:37:39.844Z,8.62
2018-12-20T10:38:41.708Z,8.73
2018-12-20T10:39:39.943Z,8.62
2018-12-20T10:40:40.009Z,8.66
2018-12-20T10:41:40.035Z,8.84
2018-12-20T10:42:40.077Z,8.72
2018-12-20T10:43:40.152Z,8.76
2018-12-20T10:44:40.298Z,8.90
2018-12-20T10:45:40.241Z,9.01
2018-12-20T10:46:40.263Z,9.12
2018-12-20T10:47:40.309Z,9.24
2018-12-20T10:48:40.369Z,9.21
2018-12-20T10:49:40.401Z,9.23
2018-12-20T10:50:40.475Z,9.16
2018-12-20T10:51:40.494Z,9.18
2018-12-20T10:52:40.548Z,9.39
2018-12-20T10:53:40.589Z,9.46
2018-12-20T10:54:40.630Z,9.49
2018-12-20T10:55:40.703Z,9.46
2018-12-20T10:56:40.726Z,9.63
2018-12-20T10:57:40.770Z,9.83
2018-12-20T10:58:40.827Z,9.78
2018-12-20T10:59:40.866Z,9.93
2018-12-20T11:00:40.930Z,9.78
2018-12-20T11:01:40.954Z,9.81
2018-12-20T11:02:41.003Z,9.85
2018-12-20T11:03:41.046Z,9.81
2018-12-20T11:04:41.119Z,9.78
2018-12-20T11:05:41.156Z,9.63
2018-12-20T11:06:41.207Z,9.61
2018-12-20T11:07:41.240Z,9.67
2018-12-20T11:08:41.280Z,9.56
2018-12-20T11:09:41.321Z,9.53
2018-12-20T11:10:41.381Z,9.45
2018-12-20T11:11:41.441Z,9.34
2018-12-20T11:12:41.460Z,9.20
2018-12-20T11:13:41.520Z,9.24
2018-12-20T11:14:41.552Z,9.20
2018-12-20T11:15:41.612Z,9.01
2018-12-20T11:16:41.679Z,9.04
2018-12-20T11:17:41.696Z,8.96
2018-12-20T11:18:41.736Z,8.97
2018-12-20T11:19:41.789Z,9.05
2018-12-20T11:20:41.833Z,9.04
2018-12-20T11:21:41.917Z,9.01
2018-12-20T11:22:41.917Z,8.99
2018-12-20T11:23:41.968Z,8.96
2018-12-20T11:24:42.015Z,8.96
2018-12-20T11:25:42.056Z,8.97
2018-12-20T11:26:42.140Z,8.90
2018-12-20T11:27:42.743Z,8.91
2018-12-20T11:28:42.199Z,8.91
2018-12-20T11:29:42.255Z,8.99
2018-12-20T11:30:42.282Z,9.05
2018-12-20T11:31:42.353Z,9.01
2018-12-20T11:32:42.394Z,9.04
2018-12-20T11:33:42.434Z,8.97
2018-12-20T11:34:42.472Z,8.87
2018-12-20T11:35:42.518Z,8.94
2018-12-20T11:36:42.558Z,9.01
2018-12-20T11:37:42.630Z,9.02
2018-12-20T11:38:42.647Z,9.05
2018-12-20T11:39:42.701Z,8.99
2018-12-20T11:40:42.744Z,9.02
2018-12-20T11:41:42.799Z,9.06
2018-12-20T11:42:42.855Z,9.05
2018-12-20T11:43:42.885Z,9.09
2018-12-20T11:44:42.923Z,9.15
2018-12-20T11:45:42.973Z,9.16
2018-12-20T11:46:43.015Z,9.18
2018-12-20T11:47:46.057Z,9.23
2018-12-20T11:48:43.111Z,9.23
2018-12-20T11:49:43.157Z,9.21
2018-12-20T11:50:43.197Z,9.25
2018-12-20T11:51:43.248Z,9.16
2018-12-20T11:52:43.315Z,9.24
2018-12-20T11:53:43.332Z,9.30
2018-12-20T11:54:43.382Z,9.23
2018-12-20T11:55:43.423Z,9.34
2018-12-20T11:56:43.476Z,9.42
2018-12-20T11:57:43.534Z,9.45
2018-12-20T11:58:43.592Z,9.48
2018-12-20T11:59:43.639Z,9.45
2018-12-20T12:00:43.663Z,9.46
2018-12-20T12:01:43.701Z,9.50
2018-12-20T12:02:44.737Z,9.48
2018-12-20T12:03:43.819Z,9.61
2018-12-20T12:04:43.846Z,9.52
2018-12-20T12:05:43.881Z,9.53
2018-12-20T12:06:43.980Z,9.63
2018-12-20T12:07:43.976Z,9.64
2018-12-20T12:08:44.070Z,9.64
2018-12-20T12:09:44.064Z,9.70
2018-12-20T12:10:44.109Z,9.71
2018-12-20T12:11:44.160Z,9.75
2018-12-20T12:12:44.211Z,9.71
2018-12-20T12:13:44.364Z,9.81
2018-12-20T12:14:44.293Z,9.70
2018-12-20T12:15:44.351Z,9.81
2018-12-20T12:16:44.389Z,9.75
2018-12-20T12:17:44.431Z,9.76
2018-12-20T12:18:44.506Z,9.78
2018-12-20T12:19:44.525Z,9.79
2018-12-20T12:20:44.580Z,9.79
2018-12-20T12:21:44.631Z,9.79
2018-12-20T12:22:44.662Z,9.73
2018-12-20T12:23:44.738Z,9.52
2018-12-20T12:24:44.778Z,9.48
2018-12-20T12:25:44.800Z,9.53
2018-12-20T12:26:44.854Z,9.48
2018-12-20T12:27:44.915Z,9.35
2018-12-20T12:28:44.949Z,9.31
2018-12-20T12:29:45.023Z,9.16
2018-12-20T12:30:45.036Z,9.24
2018-12-20T12:31:45.080Z,9.12
2018-12-20T12:32:45.135Z,9.13
2018-12-20T12:33:45.171Z,9.04
2018-12-20T12:34:45.247Z,8.93
2018-12-20T12:35:45.280Z,8.90
2018-12-20T12:36:45.309Z,8.94
2018-12-20T12:37:45.356Z,8.88
2018-12-20T12:38:45.402Z,8.88
2018-12-20T12:39:45.476Z,8.76
2018-12-20T12:40:45.500Z,8.81
2018-12-20T12:41:45.540Z,8.75
2018-12-20T12:42:45.584Z,8.62
2018-12-20T12:43:51.027Z,8.60
2018-12-20T12:44:45.699Z,8.51
2018-12-20T12:45:47.478Z,8.42
2018-12-20T12:46:45.778Z,8.48
2018-12-20T12:47:45.812Z,8.37
2018-12-20T12:48:46.441Z,8.25
2018-12-20T12:49:45.929Z,8.25
2018-12-20T12:50:46.054Z,8.25
2018-12-20T12:51:52.880Z,8.20
2018-12-20T12:52:46.044Z,8.21
2018-12-20T12:53:46.094Z,8.08
2018-12-20T12:54:46.127Z,8.15
2018-12-20T12:55:46.205Z,8.10
2018-12-20T12:56:46.222Z,8.11
2018-12-20T12:57:46.266Z,8.11
2018-12-20T12:58:46.308Z,8.00
2018-12-20T12:59:46.367Z,7.97
2018-12-20T13:00:46.427Z,7.96
2018-12-20T13:01:46.451Z,8.04
2018-12-20T13:02:46.495Z,7.90
2018-12-20T13:03:46.538Z,7.96
2018-12-20T13:04:46.597Z,7.94
2018-12-20T13:05:46.655Z,7.96
2018-12-20T13:06:46.692Z,7.93
2018-12-20T13:07:46.719Z,7.93
2018-12-20T13:08:46.762Z,7.99
2018-12-20T13:09:46.802Z,7.93
2018-12-20T13:10:46.876Z,7.87
2018-12-20T13:11:46.898Z,7.90
2018-12-20T13:12:46.933Z,7.94
2018-12-20T13:13:46.985Z,7.92
2018-12-20T13:14:47.027Z,7.94
2018-12-20T13:15:47.092Z,7.92
2018-12-20T13:16:47.136Z,7.89
2018-12-20T13:17:47.165Z,7.84
2018-12-20T13:18:47.210Z,7.89